Time;durP1;ratioP1;P1;durP2;ratioP2;P2;SDS_P1;SDS_P2;PMS_P1;PMS_P2;Temp;Humidity;BMP_temperature;BMP_pressure;BME280_temperature;BME280_humidity;BME280_pressure;Samples;Min_cycle;Max_cycle;Signal;HPM_P1;HPM_P2
2021/10/02 00:35:19;;;;;;;16.90;11.10;;;13.70;99.90;;;;;;4992773;28;20781;-76
2021/10/02 00:45:52;;;;;;;24.50;11.63;;;13.70;99.90;;;;;;4993295;28;20401;-77
2021/10/02 00:48:18;;;;;;;19.13;12.13;;;13.70;99.90;;;;;;4988549;28;20398;-76
2021/10/02 00:50:46;;;;;;;17.95;10.90;;;13.70;99.90;;;;;;4991764;28;20426;-76
2021/10/02 00:53:13;;;;;;;18.90;11.57;;;13.70;99.90;;;;;;4992471;28;20395;-75
2021/10/02 00:55:39;;;;;;;23.63;11.90;;;13.70;99.90;;;;;;4991033;28;20903;-77
2021/10/02 00:58:04;;;;;;;19.65;11.32;;;13.70;99.90;;;;;;4986055;28;20411;-77
2021/10/02 01:00:31;;;;;;;21.20;11.60;;;13.70;99.90;;;;;;4989003;28;20394;-77
2021/10/02 01:03:15;;;;;;;19.65;10.90;;;13.70;99.90;;;;;;4992245;28;20404;-77
2021/10/02 01:06:05;;;;;;;23.85;10.88;;;13.70;99.90;;;;;;4990827;28;20434;-76
2021/10/02 01:08:51;;;;;;;16.47;9.87;;;13.70;99.90;;;;;;5001579;28;20386;-77
2021/10/02 01:11:50;;;;;;;19.52;10.05;;;13.70;99.90;;;;;;4996126;28;20386;-77
2021/10/02 01:14:35;;;;;;;18.17;10.57;;;13.70;99.90;;;;;;4983462;28;20409;-76
2021/10/02 01:17:06;;;;;;;18.65;10.13;;;13.70;99.90;;;;;;4999486;28;20390;-77
2021/10/02 01:19:57;;;;;;;18.08;9.85;;;13.70;99.90;;;;;;4992322;28;20772;-77
2021/10/02 01:22:40;;;;;;;21.85;10.70;;;13.70;99.90;;;;;;4994833;28;20394;-76
2021/10/02 01:25:27;;;;;;;18.23;9.15;;;13.80;99.90;;;;;;4992336;28;20820;-76
2021/10/02 01:28:28;;;;;;;14.83;9.20;;;13.80;99.90;;;;;;4985526;28;20390;-73
2021/10/02 01:34:06;;;;;;;17.02;10.20;;;13.70;99.90;;;;;;4960782;28;20403;-74
2021/10/02 01:47:37;;;;;;;15.45;9.75;;;13.80;99.90;;;;;;5009346;28;20389;-76
2021/10/02 01:50:06;;;;;;;15.57;9.53;;;13.80;99.90;;;;;;5007196;28;20398;-75
2021/10/02 01:52:38;;;;;;;16.67;10.03;;;13.80;99.90;;;;;;5002636;28;20394;-75
2021/10/02 01:55:09;;;;;;;12.52;8.75;;;13.80;99.90;;;;;;4997824;28;20421;-75
2021/10/02 01:57:42;;;;;;;15.32;9.50;;;13.70;99.90;;;;;;4999095;28;20411;-76
2021/10/02 02:00:11;;;;;;;15.75;9.32;;;13.70;99.90;;;;;;4999644;28;20427;-74
2021/10/02 02:02:40;;;;;;;18.55;11.02;;;13.70;99.90;;;;;;4995891;28;20477;-74
2021/10/02 02:05:08;;;;;;;21.75;10.70;;;13.70;99.90;;;;;;4996071;28;20394;-75
2021/10/02 02:07:36;;;;;;;14.02;10.23;;;13.80;99.90;;;;;;4993426;28;20421;-73
2021/10/02 02:10:05;;;;;;;15.27;10.23;;;13.80;99.90;;;;;;4994264;28;20408;-72
2021/10/02 02:12:33;;;;;;;16.33;10.30;;;13.80;99.90;;;;;;4993700;28;20387;-72
2021/10/02 02:15:17;;;;;;;15.23;9.20;;;13.80;99.90;;;;;;4993939;28;20452;-72
2021/10/02 02:17:46;;;;;;;15.23;9.40;;;13.80;99.90;;;;;;4994216;28;20436;-72
2021/10/02 02:20:21;;;;;;;17.17;10.23;;;13.80;99.90;;;;;;4994007;28;20417;-72
2021/10/02 02:22:47;;;;;;;16.75;11.07;;;13.80;99.90;;;;;;4992821;28;20403;-73
2021/10/02 02:25:13;;;;;;;18.83;10.07;;;13.80;99.90;;;;;;4994152;28;20446;-72
2021/10/02 02:27:39;;;;;;;22.48;11.30;;;13.80;99.90;;;;;;4993946;28;20394;-72
2021/10/02 02:30:05;;;;;;;16.25;10.35;;;13.80;99.90;;;;;;4991755;28;20415;-73
2021/10/02 02:32:30;;;;;;;16.45;10.55;;;13.80;99.90;;;;;;4993236;28;20421;-73
2021/10/02 02:34:56;;;;;;;22.98;11.60;;;13.80;99.90;;;;;;4992555;28;20771;-73
2021/10/02 02:37:22;;;;;;;15.13;9.40;;;13.80;99.90;;;;;;4993638;28;20394;-73
2021/10/02 02:39:47;;;;;;;14.20;9.52;;;13.80;99.90;;;;;;4994812;28;20433;-73
2021/10/02 02:42:13;;;;;;;20.13;12.65;;;13.80;99.90;;;;;;4993262;28;20791;-73
2021/10/02 02:44:39;;;;;;;14.68;9.65;;;13.80;99.90;;;;;;4993773;28;20398;-72
2021/10/02 02:47:09;;;;;;;17.52;9.60;;;13.80;99.90;;;;;;4993607;28;20461;-74
2021/10/02 02:49:47;;;;;;;13.02;9.13;;;13.80;99.90;;;;;;4991617;28;20486;-73
2021/10/02 02:52:26;;;;;;;16.90;9.80;;;13.80;99.90;;;;;;4993060;28;20398;-73
2021/10/02 02:55:06;;;;;;;15.55;10.27;;;13.90;99.90;;;;;;4993472;28;20804;-73
2021/10/02 02:57:38;;;;;;;12.10;8.98;;;13.90;99.90;;;;;;4994202;28;20445;-73
2021/10/02 03:00:18;;;;;;;10.77;8.77;;;13.90;99.90;;;;;;4993891;28;20398;-72
2021/10/02 03:02:58;;;;;;;12.80;8.80;;;13.80;99.90;;;;;;4992434;28;20779;-73
2021/10/02 03:05:26;;;;;;;11.80;8.05;;;13.90;99.90;;;;;;4993801;28;20433;-73
2021/10/02 03:07:56;;;;;;;20.05;9.93;;;13.80;99.90;;;;;;4993725;28;20444;-74
2021/10/02 03:10:24;;;;;;;11.63;8.65;;;13.90;99.90;;;;;;4986718;28;20396;-73
2021/10/02 03:12:53;;;;;;;11.80;8.45;;;13.90;99.90;;;;;;4993300;28;20425;-74
2021/10/02 03:15:21;;;;;;;12.45;8.90;;;13.90;99.90;;;;;;4993402;28;20464;-73
2021/10/02 03:17:48;;;;;;;12.27;8.02;;;13.90;99.90;;;;;;4991979;28;21532;-73
2021/10/02 03:20:16;;;;;;;17.00;8.90;;;13.90;99.90;;;;;;4988467;28;20435;-73
2021/10/02 03:22:43;;;;;;;15.43;8.25;;;13.90;99.90;;;;;;4993579;28;20383;-72
2021/10/02 03:25:10;;;;;;;11.43;8.30;;;13.90;99.90;;;;;;4992717;28;20469;-72
2021/10/02 03:27:37;;;;;;;12.52;8.60;;;13.90;99.90;;;;;;4975959;28;20408;-73
2021/10/02 03:30:07;;;;;;;14.23;8.07;;;13.90;99.90;;;;;;4974327;28;20404;-73
2021/10/02 03:32:33;;;;;;;12.75;8.63;;;13.90;99.90;;;;;;4989567;28;20810;-71
2021/10/02 03:34:59;;;;;;;12.60;8.05;;;13.80;99.90;;;;;;4992995;28;20437;-72
2021/10/02 03:37:27;;;;;;;14.32;8.80;;;13.80;99.90;;;;;;4992324;28;20441;-72
2021/10/02 03:39:57;;;;;;;15.20;8.35;;;13.80;99.90;;;;;;4973677;28;20411;-72
2021/10/02 03:42:23;;;;;;;10.95;8.27;;;13.80;99.90;;;;;;4973284;28;20571;-72
2021/10/02 03:44:51;;;;;;;11.70;8.53;;;13.80;99.90;;;;;;4976590;28;21043;-72
2021/10/02 03:47:18;;;;;;;15.43;9.00;;;13.90;99.90;;;;;;4992276;28;20762;-72
2021/10/02 03:49:47;;;;;;;12.02;7.50;;;13.90;99.90;;;;;;4991038;28;20402;-71
2021/10/02 03:52:13;;;;;;;8.95;7.63;;;13.90;99.90;;;;;;4985735;28;20408;-71
2021/10/02 03:54:40;;;;;;;10.93;8.00;;;13.90;99.90;;;;;;4989370;28;20909;-71
2021/10/02 03:57:06;;;;;;;13.07;8.50;;;13.90;99.90;;;;;;4992152;28;20422;-71
2021/10/02 03:59:31;;;;;;;13.32;7.50;;;14.00;99.90;;;;;;4991645;28;20440;-72
2021/10/02 04:01:57;;;;;;;11.02;8.45;;;13.90;99.90;;;;;;4991105;28;20398;-71
2021/10/02 04:04:23;;;;;;;12.98;8.20;;;13.90;99.90;;;;;;4992389;28;20451;-72
2021/10/02 04:06:51;;;;;;;10.95;8.20;;;13.80;99.90;;;;;;4993153;28;20744;-74
2021/10/02 04:09:18;;;;;;;11.45;8.23;;;13.90;99.90;;;;;;4992774;28;20434;-72
2021/10/02 04:11:44;;;;;;;14.63;8.40;;;13.90;99.90;;;;;;4996308;28;20858;-73
2021/10/02 04:14:10;;;;;;;10.77;8.15;;;13.80;99.90;;;;;;5000341;28;20413;-72
2021/10/02 04:16:36;;;;;;;12.00;7.97;;;13.80;99.90;;;;;;4999957;28;20410;-72
2021/10/02 04:19:02;;;;;;;14.63;7.47;;;13.80;99.90;;;;;;4999907;28;20413;-74
2021/10/02 04:21:28;;;;;;;10.77;7.60;;;13.90;99.90;;;;;;4992962;28;20391;-74
2021/10/02 04:23:53;;;;;;;10.75;7.20;;;13.90;99.90;;;;;;4999131;28;20477;-72
2021/10/02 04:26:21;;;;;;;12.32;6.95;;;13.90;99.90;;;;;;4998837;28;20386;-72
2021/10/02 04:28:48;;;;;;;8.93;6.78;;;13.90;99.90;;;;;;4999423;28;20406;-73
2021/10/02 04:31:15;;;;;;;9.35;7.20;;;13.90;99.90;;;;;;4999880;28;20394;-72
2021/10/02 04:33:40;;;;;;;9.70;7.57;;;13.90;99.90;;;;;;4998100;28;20398;-73
2021/10/02 04:36:06;;;;;;;8.75;6.32;;;13.90;99.90;;;;;;4996435;28;20418;-72
2021/10/02 04:38:32;;;;;;;9.90;7.40;;;13.90;99.90;;;;;;4995375;28;20426;-73
2021/10/02 04:40:57;;;;;;;13.03;8.20;;;13.90;99.90;;;;;;4993474;28;20466;-72
2021/10/02 04:43:24;;;;;;;11.10;7.90;;;13.90;99.90;;;;;;4993256;28;20442;-72
2021/10/02 04:45:50;;;;;;;12.13;7.77;;;14.00;99.90;;;;;;4995387;28;20401;-72
2021/10/02 04:48:16;;;;;;;12.30;7.70;;;14.10;99.90;;;;;;4992361;28;20406;-71
2021/10/02 04:50:41;;;;;;;15.00;9.07;;;14.00;99.90;;;;;;4993655;28;20464;-73
2021/10/02 04:53:07;;;;;;;10.67;8.07;;;13.90;99.90;;;;;;4995080;28;20967;-71
2021/10/02 04:55:33;;;;;;;12.50;8.20;;;13.90;99.90;;;;;;4992136;28;20436;-73
2021/10/02 04:57:58;;;;;;;11.70;8.23;;;13.90;99.90;;;;;;4994084;28;20429;-72
2021/10/02 05:00:24;;;;;;;13.88;7.53;;;13.90;99.90;;;;;;4993551;28;20421;-71
2021/10/02 05:02:50;;;;;;;15.68;8.13;;;14.00;99.90;;;;;;4990820;28;20872;-72
2021/10/02 05:05:15;;;;;;;15.00;7.85;;;13.90;99.90;;;;;;4990596;28;20406;-72
2021/10/02 05:07:41;;;;;;;11.30;7.65;;;13.90;99.90;;;;;;4990518;28;20395;-72
2021/10/02 05:10:07;;;;;;;13.33;8.00;;;13.90;99.90;;;;;;4991409;28;20399;-74
2021/10/02 05:12:33;;;;;;;12.63;7.20;;;13.90;99.90;;;;;;4992530;28;20393;-75
2021/10/02 05:14:58;;;;;;;13.05;8.20;;;13.90;99.90;;;;;;4995973;28;20493;-74
2021/10/02 05:17:24;;;;;;;10.43;6.90;;;13.90;99.90;;;;;;4996828;28;20462;-73
2021/10/02 05:19:51;;;;;;;10.40;7.90;;;13.90;99.90;;;;;;4996213;28;20716;-73
2021/10/02 05:22:17;;;;;;;14.02;7.68;;;13.90;99.90;;;;;;4999350;28;20386;-74
2021/10/02 05:24:43;;;;;;;13.20;8.90;;;13.80;99.90;;;;;;5001655;28;20394;-75
2021/10/02 05:27:10;;;;;;;15.37;8.97;;;13.80;99.90;;;;;;5001382;28;20973;-74
2021/10/02 05:29:37;;;;;;;12.38;8.57;;;13.70;99.90;;;;;;4989816;28;20403;-75
2021/10/02 05:32:04;;;;;;;14.45;9.90;;;13.70;99.90;;;;;;4992566;28;20405;-75
2021/10/02 05:34:31;;;;;;;15.10;8.60;;;13.70;99.90;;;;;;5001749;28;20391;-71
2021/10/02 05:36:57;;;;;;;14.85;8.55;;;13.70;99.90;;;;;;4996858;28;20827;-72
2021/10/02 05:39:22;;;;;;;12.63;8.60;;;13.70;99.90;;;;;;4998167;28;20442;-72
2021/10/02 05:41:48;;;;;;;13.50;8.00;;;13.70;99.90;;;;;;4995621;28;20494;-72
2021/10/02 05:44:14;;;;;;;11.65;8.23;;;13.60;99.90;;;;;;4996744;28;20395;-73
2021/10/02 05:46:39;;;;;;;12.27;8.00;;;13.60;99.90;;;;;;4994814;28;20493;-72
2021/10/02 05:49:05;;;;;;;15.57;8.20;;;13.50;99.90;;;;;;4986071;28;20421;-73
2021/10/02 05:51:30;;;;;;;11.27;7.80;;;13.40;99.90;;;;;;4994538;28;20887;-73
2021/10/02 05:53:56;;;;;;;11.63;7.87;;;13.40;99.90;;;;;;4994420;28;20985;-73
2021/10/02 05:56:24;;;;;;;17.27;8.20;;;13.40;99.90;;;;;;4988215;28;20423;-74
2021/10/02 05:58:50;;;;;;;15.52;9.60;;;13.40;99.90;;;;;;4976333;28;20439;-73
2021/10/02 06:01:16;;;;;;;10.95;8.32;;;13.40;99.90;;;;;;4994371;28;20398;-74
2021/10/02 06:03:42;;;;;;;13.40;9.02;;;13.50;99.90;;;;;;4992133;28;20391;-72
2021/10/02 06:06:07;;;;;;;14.75;9.73;;;13.50;99.90;;;;;;4994581;28;20382;-71
2021/10/02 06:08:33;;;;;;;9.23;7.07;;;13.60;99.90;;;;;;4994354;28;20520;-73
2021/10/02 06:10:58;;;;;;;17.20;8.60;;;13.60;99.90;;;;;;4993150;28;20485;-72
2021/10/02 06:13:24;;;;;;;15.40;8.17;;;13.60;99.90;;;;;;4993212;28;20407;-72
2021/10/02 06:15:50;;;;;;;12.57;7.57;;;13.70;99.90;;;;;;4994222;28;20414;-72
2021/10/02 06:18:16;;;;;;;15.75;8.63;;;13.70;99.90;;;;;;4993595;28;20390;-73
2021/10/02 06:20:42;;;;;;;12.00;7.45;;;13.70;99.90;;;;;;4993880;28;20497;-72
2021/10/02 06:23:07;;;;;;;14.40;8.18;;;13.80;99.90;;;;;;4993488;28;20395;-72
2021/10/02 06:25:33;;;;;;;12.57;7.40;;;13.90;99.90;;;;;;4993155;28;20387;-73
2021/10/02 06:28:00;;;;;;;10.13;7.10;;;13.90;99.90;;;;;;4989364;28;20392;-73
2021/10/02 06:30:26;;;;;;;13.33;8.50;;;14.00;99.90;;;;;;4974207;28;20407;-73
2021/10/02 06:32:52;;;;;;;11.52;7.57;;;14.10;99.90;;;;;;4983286;28;20411;-73
2021/10/02 06:35:18;;;;;;;12.80;7.70;;;14.10;99.90;;;;;;5004705;28;20414;-71
2021/10/02 06:37:46;;;;;;;8.13;7.13;;;14.20;99.90;;;;;;4991499;28;20422;-72
2021/10/02 06:40:13;;;;;;;10.07;7.23;;;14.20;99.90;;;;;;4990400;28;20493;-73
2021/10/02 06:42:39;;;;;;;8.15;7.07;;;14.30;99.90;;;;;;4992470;28;20402;-73
2021/10/02 06:45:06;;;;;;;11.87;8.00;;;14.30;99.90;;;;;;4993374;28;20488;-73
2021/10/02 06:47:32;;;;;;;13.93;8.30;;;14.40;99.30;;;;;;4992045;28;20390;-72
2021/10/02 06:49:58;;;;;;;9.85;7.80;;;14.50;98.10;;;;;;4996769;28;20412;-73
2021/10/02 06:52:29;;;;;;;10.05;7.90;;;14.50;97.80;;;;;;4994008;28;20791;-73
2021/10/02 06:54:55;;;;;;;12.33;7.30;;;14.60;96.10;;;;;;4993451;28;20862;-74
2021/10/02 06:57:21;;;;;;;10.50;8.02;;;14.70;95.50;;;;;;4990004;28;20399;-73
2021/10/02 06:59:47;;;;;;;14.30;8.13;;;14.70;94.80;;;;;;4990740;28;20415;-74
2021/10/02 07:02:12;;;;;;;10.03;7.20;;;14.80;92.50;;;;;;4989289;28;20391;-73
2021/10/02 07:04:38;;;;;;;12.87;9.23;;;14.90;92.90;;;;;;4992425;28;20404;-73
2021/10/02 07:07:04;;;;;;;10.32;7.50;;;15.00;92.10;;;;;;4990301;28;20465;-74
2021/10/02 07:09:30;;;;;;;13.80;8.60;;;14.90;90.30;;;;;;4992436;28;20402;-74
2021/10/02 07:11:56;;;;;;;12.00;6.60;;;15.00;91.30;;;;;;4990965;28;20797;-75
2021/10/02 07:14:22;;;;;;;12.35;6.72;;;15.00;90.90;;;;;;4991897;28;20880;-76
2021/10/02 07:16:48;;;;;;;7.47;6.60;;;15.00;91.00;;;;;;4985399;28;20414;-75
2021/10/02 07:19:14;;;;;;;8.65;6.28;;;15.10;90.00;;;;;;4992478;28;20415;-75
2021/10/02 07:21:40;;;;;;;12.82;7.70;;;15.20;89.50;;;;;;4992041;28;20434;-74
2021/10/02 07:24:06;;;;;;;8.50;5.90;;;15.30;87.60;;;;;;4993373;28;20433;-76
2021/10/02 07:26:32;;;;;;;8.10;6.07;;;15.40;85.00;;;;;;4994083;28;20451;-74
2021/10/02 07:28:58;;;;;;;9.30;6.70;;;15.50;82.00;;;;;;4995941;28;20398;-75
2021/10/02 07:31:23;;;;;;;11.60;6.57;;;15.60;80.30;;;;;;4994212;28;20417;-75
2021/10/02 07:33:49;;;;;;;6.22;5.20;;;15.80;80.30;;;;;;4992571;28;20404;-74
2021/10/02 07:36:17;;;;;;;6.22;4.10;;;15.90;72.90;;;;;;4993024;28;20804;-77
2021/10/02 07:38:43;;;;;;;5.28;4.28;;;16.00;70.90;;;;;;4993750;28;20402;-75
2021/10/02 07:41:11;;;;;;;7.20;3.90;;;16.10;68.60;;;;;;4991520;28;20430;-75
2021/10/02 07:43:38;;;;;;;6.10;3.70;;;16.10;66.60;;;;;;4992548;28;20449;-76
2021/10/02 07:46:04;;;;;;;5.43;4.15;;;16.20;65.40;;;;;;4991767;28;20907;-75
2021/10/02 07:48:31;;;;;;;6.95;4.03;;;16.30;62.30;;;;;;4991704;28;20407;-75
2021/10/02 07:50:57;;;;;;;7.35;3.38;;;16.40;61.00;;;;;;4992648;28;20887;-74
2021/10/02 07:53:24;;;;;;;5.63;3.83;;;16.50;57.90;;;;;;4990665;28;20433;-74
2021/10/02 07:55:51;;;;;;;3.85;3.40;;;16.50;58.40;;;;;;4991039;28;20410;-76
2021/10/02 07:58:21;;;;;;;4.18;3.78;;;16.40;59.20;;;;;;4991466;28;20883;-74
2021/10/02 08:00:47;;;;;;;5.90;4.32;;;16.40;58.60;;;;;;4991887;28;20948;-74
2021/10/02 08:03:13;;;;;;;3.17;2.88;;;16.40;58.70;;;;;;4991787;28;20394;-75
2021/10/02 08:05:39;;;;;;;5.50;2.90;;;16.50;56.20;;;;;;4992262;28;20402;-75
2021/10/02 08:08:06;;;;;;;4.07;3.20;;;16.50;56.30;;;;;;4990366;28;20398;-76
2021/10/02 08:10:32;;;;;;;4.70;3.10;;;16.70;56.50;;;;;;4988192;28;20817;-74
2021/10/02 08:12:58;;;;;;;6.82;3.40;;;16.80;55.60;;;;;;4991349;28;20404;-76
2021/10/02 08:15:23;;;;;;;3.17;2.72;;;17.00;53.30;;;;;;4992949;28;20766;-76
2021/10/02 08:17:51;;;;;;;5.20;3.08;;;17.10;54.30;;;;;;4992361;28;20474;-75
2021/10/02 08:20:18;;;;;;;3.80;2.70;;;17.20;50.80;;;;;;4992191;28;20524;-75
2021/10/02 08:22:49;;;;;;;5.80;2.92;;;17.20;50.60;;;;;;4992790;28;20429;-78
2021/10/02 08:25:17;;;;;;;3.95;2.88;;;17.20;51.20;;;;;;4993440;28;20458;-75
2021/10/02 08:27:44;;;;;;;5.38;3.40;;;17.20;51.30;;;;;;4993501;28;20420;-75
2021/10/02 08:30:12;;;;;;;2.33;2.13;;;17.20;49.60;;;;;;4992394;28;20398;-75
2021/10/02 08:32:38;;;;;;;2.42;1.95;;;17.20;48.40;;;;;;4993527;28;20398;-76
2021/10/02 08:35:05;;;;;;;2.50;2.30;;;17.30;47.30;;;;;;4994424;28;20466;-75
2021/10/02 08:37:31;;;;;;;4.03;1.73;;;17.40;47.20;;;;;;4995667;28;20406;-76
2021/10/02 08:39:57;;;;;;;5.78;2.40;;;17.30;46.00;;;;;;4994661;28;20410;-74
2021/10/02 08:42:24;;;;;;;5.03;3.00;;;17.40;46.90;;;;;;4996213;28;20492;-77
2021/10/02 08:44:55;;;;;;;3.92;2.03;;;17.50;46.30;;;;;;4995346;28;20418;-75
2021/10/02 08:47:22;;;;;;;3.05;2.10;;;17.50;45.40;;;;;;4996216;28;20429;-77
2021/10/02 08:49:50;;;;;;;3.33;2.80;;;17.60;44.70;;;;;;4998149;28;20417;-76
2021/10/02 08:52:20;;;;;;;4.03;2.30;;;17.60;45.40;;;;;;4991523;28;20426;-76
2021/10/02 08:54:51;;;;;;;2.30;2.10;;;17.50;45.90;;;;;;4987796;28;20469;-76
2021/10/02 08:57:23;;;;;;;3.92;2.40;;;17.50;45.30;;;;;;4986615;28;20464;-74
2021/10/02 08:59:54;;;;;;;4.60;3.00;;;17.70;44.50;;;;;;4993467;28;20433;-75
2021/10/02 09:02:21;;;;;;;2.70;2.10;;;17.80;44.20;;;;;;4994787;28;20402;-75
2021/10/02 09:04:48;;;;;;;4.60;2.80;;;17.90;42.30;;;;;;5003098;28;20459;-76
2021/10/02 09:07:16;;;;;;;2.60;2.25;;;18.00;43.60;;;;;;5006001;28;20399;-75
2021/10/02 09:09:43;;;;;;;3.40;3.03;;;18.00;43.40;;;;;;5000764;28;20417;-73
2021/10/02 09:12:10;;;;;;;3.50;3.10;;;18.00;43.90;;;;;;5008566;28;20409;-73
2021/10/02 09:14:36;;;;;;;4.65;2.90;;;17.90;43.90;;;;;;5004016;28;20409;-74
2021/10/02 09:17:03;;;;;;;4.13;2.80;;;18.00;43.20;;;;;;4993792;28;20410;-75
2021/10/02 09:19:28;;;;;;;2.20;2.00;;;18.00;42.80;;;;;;4995752;28;20425;-76
2021/10/02 09:22:01;;;;;;;4.07;2.60;;;18.00;40.50;;;;;;4995229;28;20406;-74
2021/10/02 09:24:44;;;;;;;4.55;2.95;;;18.00;40.90;;;;;;4993682;28;20402;-75
2021/10/02 09:27:19;;;;;;;2.70;2.50;;;18.20;40.30;;;;;;4993158;28;20398;-76
2021/10/02 09:29:50;;;;;;;3.20;2.35;;;18.30;39.40;;;;;;4991385;28;20478;-76
2021/10/02 09:32:20;;;;;;;2.72;2.53;;;18.50;38.90;;;;;;4994541;28;20402;-78
2021/10/02 09:34:51;;;;;;;5.82;3.58;;;18.70;39.40;;;;;;4999418;28;20417;-76
2021/10/02 09:37:20;;;;;;;3.65;3.30;;;18.70;40.00;;;;;;4997303;28;20399;-73
2021/10/02 09:39:46;;;;;;;4.57;2.85;;;18.40;40.60;;;;;;4994729;28;20398;-77
2021/10/02 09:42:23;;;;;;;3.40;3.10;;;18.00;43.00;;;;;;4998270;28;20417;-76
2021/10/02 09:44:48;;;;;;;5.85;3.10;;;17.70;44.50;;;;;;4999161;28;20399;-79
2021/10/02 09:47:18;;;;;;;4.63;3.87;;;17.50;45.80;;;;;;4999480;28;20493;-77
2021/10/02 09:49:46;;;;;;;4.53;3.43;;;17.50;47.40;;;;;;4997013;28;20403;-77
2021/10/02 09:52:34;;;;;;;4.30;3.00;;;17.70;47.20;;;;;;4995365;28;20398;-76
2021/10/02 09:55:12;;;;;;;6.20;3.30;;;18.00;44.40;;;;;;4998154;28;20421;-77
2021/10/02 09:57:41;;;;;;;5.85;3.67;;;18.30;42.70;;;;;;5002717;28;20954;-77
2021/10/02 10:00:12;;;;;;;4.68;3.47;;;18.30;42.20;;;;;;5004451;28;20835;-75
2021/10/02 10:02:40;;;;;;;5.68;3.90;;;18.50;42.10;;;;;;5006032;28;20398;-77
2021/10/02 10:05:06;;;;;;;8.60;6.07;;;18.60;40.60;;;;;;5001328;28;20486;-77
2021/10/02 10:07:32;;;;;;;4.28;3.88;;;18.50;41.70;;;;;;5006826;28;20400;-77
2021/10/02 10:10:13;;;;;;;3.97;3.40;;;18.60;40.80;;;;;;4998809;28;20468;-76
2021/10/02 10:12:41;;;;;;;4.32;3.60;;;18.90;39.70;;;;;;4994013;28;20410;-76
2021/10/02 10:15:44;;;;;;;4.88;3.75;;;19.10;38.70;;;;;;5001162;28;20922;-77
2021/10/02 10:18:35;;;;;;;4.47;3.70;;;19.20;38.20;;;;;;4999090;28;20880;-75
2021/10/02 10:21:06;;;;;;;4.43;3.05;;;19.20;37.80;;;;;;5000490;28;20407;-77
2021/10/02 10:23:43;;;;;;;5.95;3.20;;;19.20;37.60;;;;;;4999300;28;20399;-77
2021/10/02 10:26:14;;;;;;;4.93;3.67;;;19.00;37.60;;;;;;4997756;28;20493;-77
2021/10/02 10:28:42;;;;;;;4.50;3.45;;;19.00;38.20;;;;;;5004599;28;20407;-76
2021/10/02 10:31:25;;;;;;;4.50;3.90;;;19.00;37.10;;;;;;4999441;28;20422;-76
2021/10/02 10:33:53;;;;;;;5.20;3.50;;;18.90;38.00;;;;;;4999444;28;20437;-77
2021/10/02 10:36:24;;;;;;;4.68;3.80;;;18.90;37.20;;;;;;4996057;28;20468;-77
2021/10/02 10:38:51;;;;;;;3.90;3.00;;;19.00;37.00;;;;;;4996221;28;20450;-78
2021/10/02 10:41:18;;;;;;;4.50;3.10;;;19.30;36.30;;;;;;4998502;28;20917;-76
2021/10/02 10:43:44;;;;;;;3.72;3.00;;;19.50;35.30;;;;;;4997038;28;20449;-77
2021/10/02 10:46:13;;;;;;;4.00;2.95;;;19.50;35.40;;;;;;4999115;28;20962;-74
2021/10/02 10:48:39;;;;;;;7.50;3.70;;;19.60;34.70;;;;;;4998642;28;20401;-76
2021/10/02 10:51:11;;;;;;;3.75;3.20;;;19.50;35.10;;;;;;4999422;28;20425;-76
2021/10/02 10:53:43;;;;;;;6.50;3.50;;;19.70;35.30;;;;;;4992603;28;20428;-77
2021/10/02 10:56:11;;;;;;;4.35;3.38;;;20.00;34.00;;;;;;4999012;28;20409;-76
2021/10/02 10:58:38;;;;;;;3.00;2.70;;;20.10;33.30;;;;;;4995863;28;20401;-74
2021/10/02 11:01:06;;;;;;;3.80;2.70;;;20.40;31.50;;;;;;4992331;28;20449;-77
2021/10/02 11:03:36;;;;;;;3.50;2.70;;;20.60;30.50;;;;;;4995931;28;20461;-77
2021/10/02 11:06:03;;;;;;;4.35;3.42;;;20.40;30.90;;;;;;4996631;28;20887;-76
2021/10/02 11:09:02;;;;;;;4.40;2.83;;;20.10;32.10;;;;;;4994885;28;20399;-74
2021/10/02 11:11:54;;;;;;;3.45;2.53;;;20.30;32.30;;;;;;4995716;28;20441;-75
2021/10/02 11:14:43;;;;;;;5.65;2.35;;;20.20;31.40;;;;;;4975666;28;20408;-77
2021/10/02 11:17:09;;;;;;;3.50;2.85;;;20.00;31.80;;;;;;4992182;28;20410;-74
2021/10/02 11:19:42;;;;;;;4.85;2.60;;;20.10;32.20;;;;;;4996363;28;20741;-75
2021/10/02 11:23:07;;;;;;;2.60;2.40;;;20.20;31.50;;;;;;4994607;28;20398;-76
2021/10/02 11:25:36;;;;;;;2.45;2.25;;;20.60;30.80;;;;;;4995136;28;20394;-76
2021/10/02 11:28:20;;;;;;;3.20;2.20;;;20.60;30.40;;;;;;4994826;28;20375;-76
2021/10/02 11:30:48;;;;;;;3.03;2.20;;;20.60;30.60;;;;;;4995719;28;20398;-74
2021/10/02 11:33:46;;;;;;;2.63;1.80;;;20.80;29.90;;;;;;4995240;28;20860;-75
2021/10/02 11:36:30;;;;;;;2.78;2.03;;;21.30;28.80;;;;;;4997355;28;20442;-74
2021/10/02 11:39:18;;;;;;;2.08;1.60;;;21.60;27.20;;;;;;4983868;28;20395;-76
2021/10/02 11:41:50;;;;;;;3.27;1.63;;;21.70;25.50;;;;;;4991791;28;20739;-74
2021/10/02 11:44:36;;;;;;;2.60;1.70;;;21.70;25.00;;;;;;4990998;28;20398;-76
2021/10/02 11:47:34;;;;;;;3.35;2.00;;;21.70;25.20;;;;;;4990147;28;20946;-76
2021/10/02 11:50:12;;;;;;;1.47;1.20;;;21.60;24.50;;;;;;4992534;28;20395;-76
2021/10/02 11:52:37;;;;;;;5.18;1.50;;;21.30;24.70;;;;;;4992069;28;20941;-76
2021/10/02 11:55:40;;;;;;;1.70;1.30;;;21.00;25.60;;;;;;4992747;28;20468;-76
2021/10/02 11:58:09;;;;;;;1.20;1.10;;;21.00;25.40;;;;;;4975281;28;20399;-77
2021/10/02 12:00:38;;;;;;;2.58;1.38;;;20.90;25.80;;;;;;4992112;28;20425;-76
2021/10/02 12:03:05;;;;;;;1.67;1.30;;;20.80;26.10;;;;;;4990504;28;20404;-76
2021/10/02 12:05:32;;;;;;;7.32;3.95;;;20.60;26.90;;;;;;4991861;28;20398;-76
2021/10/02 12:07:58;;;;;;;4.13;1.70;;;20.30;27.10;;;;;;4993442;28;20457;-76
2021/10/02 12:10:24;;;;;;;1.60;1.20;;;20.20;27.90;;;;;;4992122;28;21007;-75
2021/10/02 12:12:49;;;;;;;1.90;1.47;;;20.20;28.40;;;;;;4994650;28;20771;-75
2021/10/02 12:15:35;;;;;;;3.80;1.50;;;20.20;28.60;;;;;;4993763;28;20488;-76
2021/10/02 12:18:01;;;;;;;1.20;1.10;;;20.10;28.90;;;;;;4995181;28;20398;-77
2021/10/02 12:20:41;;;;;;;1.10;1.00;;;20.20;27.50;;;;;;4992953;28;20688;-75
2021/10/02 12:23:09;;;;;;;2.10;1.00;;;20.40;26.90;;;;;;4990439;28;20417;-77
2021/10/02 12:25:34;;;;;;;1.42;1.10;;;20.70;26.30;;;;;;4992461;28;20395;-77
2021/10/02 12:28:00;;;;;;;2.80;1.20;;;20.80;25.70;;;;;;4992791;28;20406;-76
2021/10/02 12:30:26;;;;;;;1.50;1.13;;;21.10;25.60;;;;;;4995554;28;20402;-77
2021/10/02 12:33:00;;;;;;;1.63;1.20;;;21.20;26.00;;;;;;4998811;28;20437;-75
2021/10/02 12:35:27;;;;;;;2.70;1.02;;;21.20;25.20;;;;;;4993391;28;20423;-74
2021/10/02 12:37:56;;;;;;;1.27;1.17;;;21.00;25.70;;;;;;4992686;28;20390;-77
2021/10/02 12:40:23;;;;;;;1.80;1.23;;;20.70;27.10;;;;;;4993107;28;20887;-75
2021/10/02 12:42:54;;;;;;;2.20;1.70;;;20.60;27.70;;;;;;4990498;28;20765;-77
2021/10/02 12:45:27;;;;;;;2.20;1.87;;;20.40;28.60;;;;;;4994270;28;20748;-77
2021/10/02 12:47:57;;;;;;;4.70;1.98;;;20.20;29.40;;;;;;4992308;28;20402;-78
2021/10/02 12:50:27;;;;;;;3.65;1.98;;;20.00;29.80;;;;;;4991729;28;20391;-76
2021/10/02 12:52:54;;;;;;;2.00;1.80;;;19.80;31.00;;;;;;4991646;28;20398;-76
2021/10/02 12:55:19;;;;;;;4.73;1.77;;;19.80;30.90;;;;;;4992733;28;20539;-75
2021/10/02 12:57:46;;;;;;;4.83;1.80;;;19.60;31.30;;;;;;4995088;28;20402;-77
2021/10/02 13:00:26;;;;;;;3.08;1.60;;;19.50;32.00;;;;;;4995304;28;20430;-76
2021/10/02 13:02:58;;;;;;;4.55;2.40;;;19.40;32.50;;;;;;4994862;28;20884;-76
2021/10/02 13:05:27;;;;;;;2.15;1.95;;;19.50;33.30;;;;;;4994718;28;20391;-76
2021/10/02 13:08:01;;;;;;;1.80;1.57;;;19.60;31.80;;;;;;4994295;28;20484;-77
2021/10/02 13:10:26;;;;;;;2.80;1.60;;;19.60;31.30;;;;;;4995999;28;20395;-76
2021/10/02 13:13:13;;;;;;;2.20;1.70;;;19.70;31.40;;;;;;4996096;28;20849;-77
2021/10/02 13:15:48;;;;;;;3.85;2.30;;;19.80;31.20;;;;;;4995565;28;20891;-77
2021/10/02 13:18:18;;;;;;;1.83;1.73;;;19.90;31.10;;;;;;4993388;28;20425;-77
2021/10/02 13:20:47;;;;;;;3.50;1.90;;;20.20;30.40;;;;;;4994311;28;20414;-76
2021/10/02 13:23:32;;;;;;;3.05;2.20;;;20.30;29.10;;;;;;4993374;28;20394;-75
2021/10/02 13:26:07;;;;;;;2.90;1.80;;;20.50;28.40;;;;;;4993826;28;20402;-77
2021/10/02 13:28:49;;;;;;;3.33;2.00;;;20.60;28.10;;;;;;4993232;28;20420;-76
2021/10/02 13:31:14;;;;;;;3.17;1.80;;;20.80;27.80;;;;;;4995409;28;20398;-77
2021/10/02 13:33:51;;;;;;;2.87;1.50;;;20.80;26.80;;;;;;4996292;28;20453;-77
2021/10/02 13:36:31;;;;;;;2.00;1.70;;;20.80;25.90;;;;;;5000367;28;20411;-75
2021/10/02 13:39:09;;;;;;;3.53;1.70;;;20.70;25.80;;;;;;5000598;28;20895;-77
2021/10/02 13:41:35;;;;;;;3.40;1.67;;;20.60;25.20;;;;;;4999456;28;20398;-74
2021/10/02 13:44:04;;;;;;;2.00;1.80;;;20.70;25.10;;;;;;4998382;28;20394;-75
2021/10/02 13:46:38;;;;;;;5.95;1.63;;;20.60;25.10;;;;;;4996644;28;20430;-76
2021/10/02 13:49:06;;;;;;;1.80;1.57;;;20.60;25.40;;;;;;4996669;28;20400;-76
2021/10/02 13:51:33;;;;;;;1.90;1.70;;;20.50;25.60;;;;;;4997266;28;20386;-76